sensor_id;sensor_type;location;lat;lon;timestamp;pressure;altitude;pressure_sealevel;temperature;humidity
69245;BME280;56357;52.304;4.870;2023-05-02T00:00:30;102262.34;;;19.08;51.24
69245;BME280;56357;52.304;4.870;2023-05-02T00:02:57;102264.41;;;19.12;50.86
69245;BME280;56357;52.304;4.870;2023-05-02T00:05:23;102252.72;;;19.04;51.19
69245;BME280;56357;52.304;4.870;2023-05-02T00:07:50;102270.34;;;19.16;50.70
69245;BME280;56357;52.304;4.870;2023-05-02T00:10:17;102273.44;;;19.14;51.19
69245;BME280;56357;52.304;4.870;2023-05-02T00:12:44;102279.38;;;19.18;50.76
69245;BME280;56357;52.304;4.870;2023-05-02T00:15:10;102278.78;;;19.16;50.69
69245;BME280;56357;52.304;4.870;2023-05-02T00:17:39;102291.88;;;19.10;51.13
69245;BME280;56357;52.304;4.870;2023-05-02T00:20:07;102292.16;;;19.09;50.88
69245;BME280;56357;52.304;4.870;2023-05-02T00:22:34;102293.16;;;19.03;51.07
69245;BME280;56357;52.304;4.870;2023-05-02T00:25:01;102298.38;;;19.11;51.09
69245;BME280;56357;52.304;4.870;2023-05-02T00:27:29;102297.75;;;19.09;50.94
69245;BME280;56357;52.304;4.870;2023-05-02T00:29:56;102291.28;;;19.08;50.89
69245;BME280;56357;52.304;4.870;2023-05-02T00:32:23;102298.44;;;18.99;51.17
69245;BME280;56357;52.304;4.870;2023-05-02T00:34:50;102294.16;;;18.97;50.93
69245;BME280;56357;52.304;4.870;2023-05-02T00:37:16;102301.72;;;18.96;51.35
69245;BME280;56357;52.304;4.870;2023-05-02T00:39:42;102299.84;;;19.02;50.85
69245;BME280;56357;52.304;4.870;2023-05-02T00:42:09;102301.50;;;18.98;50.80
69245;BME280;56357;52.304;4.870;2023-05-02T00:44:35;102312.88;;;19.08;50.79
69245;BME280;56357;52.304;4.870;2023-05-02T00:47:02;102321.63;;;18.95;51.14
69245;BME280;56357;52.304;4.870;2023-05-02T00:49:28;102318.81;;;18.95;50.76
69245;BME280;56357;52.304;4.870;2023-05-02T00:51:55;102326.63;;;18.93;50.75
69245;BME280;56357;52.304;4.870;2023-05-02T00:54:22;102331.50;;;18.97;51.03
69245;BME280;56357;52.304;4.870;2023-05-02T00:56:48;102320.78;;;18.94;50.90
69245;BME280;56357;52.304;4.870;2023-05-02T00:59:15;102329.97;;;18.90;50.65
69245;BME280;56357;52.304;4.870;2023-05-02T01:07:25;102335.22;;;18.86;50.71
69245;BME280;56357;52.304;4.870;2023-05-02T01:09:58;102340.72;;;18.81;50.67
69245;BME280;56357;52.304;4.870;2023-05-02T01:13:00;102346.00;;;18.78;50.83
69245;BME280;56357;52.304;4.870;2023-05-02T01:15:29;102347.94;;;18.77;50.72
69245;BME280;56357;52.304;4.870;2023-05-02T01:17:59;102338.25;;;18.85;50.46
69245;BME280;56357;52.304;4.870;2023-05-02T01:20:27;102327.81;;;18.80;50.25
69245;BME280;56357;52.304;4.870;2023-05-02T01:22:57;102322.19;;;18.80;50.19
69245;BME280;56357;52.304;4.870;2023-05-02T01:25:34;102329.06;;;18.73;50.07
69245;BME280;56357;52.304;4.870;2023-05-02T01:28:09;102341.88;;;18.69;50.35
69245;BME280;56357;52.304;4.870;2023-05-02T01:30:42;102344.34;;;18.65;49.95
69245;BME280;56357;52.304;4.870;2023-05-02T01:33:13;102344.44;;;18.70;49.80
69245;BME280;56357;52.304;4.870;2023-05-02T01:35:42;102357.38;;;18.60;50.13
69245;BME280;56357;52.304;4.870;2023-05-02T01:38:13;102361.41;;;18.64;50.06
69245;BME280;56357;52.304;4.870;2023-05-02T01:40:43;102366.53;;;18.67;49.89
69245;BME280;56357;52.304;4.870;2023-05-02T01:43:11;102370.41;;;18.66;49.94
69245;BME280;56357;52.304;4.870;2023-05-02T01:45:42;102375.03;;;18.72;50.59
69245;BME280;56357;52.304;4.870;2023-05-02T01:48:09;102377.84;;;18.72;49.79
69245;BME280;56357;52.304;4.870;2023-05-02T01:50:37;102380.56;;;18.67;49.66
69245;BME280;56357;52.304;4.870;2023-05-02T01:53:07;102363.97;;;18.65;49.79
69245;BME280;56357;52.304;4.870;2023-05-02T01:55:40;102376.91;;;18.66;49.76
69245;BME280;56357;52.304;4.870;2023-05-02T01:58:09;102375.22;;;18.65;49.33
69245;BME280;56357;52.304;4.870;2023-05-02T02:00:37;102375.94;;;18.61;49.66
69245;BME280;56357;52.304;4.870;2023-05-02T02:03:06;102379.22;;;18.58;49.51
69245;BME280;56357;52.304;4.870;2023-05-02T02:05:35;102375.31;;;18.59;49.62
69245;BME280;56357;52.304;4.870;2023-05-02T02:08:03;102393.50;;;18.56;49.80
69245;BME280;56357;52.304;4.870;2023-05-02T02:10:36;102394.09;;;18.70;49.64
69245;BME280;56357;52.304;4.870;2023-05-02T02:13:16;102402.88;;;18.62;49.49
69245;BME280;56357;52.304;4.870;2023-05-02T02:15:46;102396.66;;;18.60;49.78
69245;BME280;56357;52.304;4.870;2023-05-02T02:18:18;102408.03;;;18.65;49.85
69245;BME280;56357;52.304;4.870;2023-05-02T02:20:47;102411.53;;;18.72;50.00
69245;BME280;56357;52.304;4.870;2023-05-02T02:23:14;102408.63;;;18.67;49.35
69245;BME280;56357;52.304;4.870;2023-05-02T02:25:42;102408.38;;;18.68;49.26
69245;BME280;56357;52.304;4.870;2023-05-02T02:28:10;102417.03;;;18.67;49.12
69245;BME280;56357;52.304;4.870;2023-05-02T02:30:36;102412.09;;;18.85;49.01
69245;BME280;56357;52.304;4.870;2023-05-02T02:33:02;102408.47;;;18.73;49.11
69245;BME280;56357;52.304;4.870;2023-05-02T02:35:33;102418.03;;;18.61;49.73
69245;BME280;56357;52.304;4.870;2023-05-02T02:40:48;102420.47;;;18.69;49.43
69245;BME280;56357;52.304;4.870;2023-05-02T02:43:47;102425.56;;;18.72;49.06
69245;BME280;56357;52.304;4.870;2023-05-02T02:46:36;102440.09;;;18.80;48.45
69245;BME280;56357;52.304;4.870;2023-05-02T02:51:54;102445.22;;;18.72;49.01
69245;BME280;56357;52.304;4.870;2023-05-02T02:57:03;102442.66;;;18.59;48.75
69245;BME280;56357;52.304;4.870;2023-05-02T02:59:34;102451.31;;;18.69;48.95
69245;BME280;56357;52.304;4.870;2023-05-02T03:02:07;102448.28;;;18.70;49.31
69245;BME280;56357;52.304;4.870;2023-05-02T03:04:38;102461.19;;;18.71;48.72
69245;BME280;56357;52.304;4.870;2023-05-02T03:07:06;102457.16;;;18.79;48.59
69245;BME280;56357;52.304;4.870;2023-05-02T03:10:01;102459.13;;;18.78;48.39
69245;BME280;56357;52.304;4.870;2023-05-02T03:12:27;102471.91;;;18.86;48.11
69245;BME280;56357;52.304;4.870;2023-05-02T03:15:02;102467.19;;;18.75;48.08
69245;BME280;56357;52.304;4.870;2023-05-02T03:17:33;102472.19;;;18.73;48.32
69245;BME280;56357;52.304;4.870;2023-05-02T03:19:59;102475.81;;;18.85;48.08
69245;BME280;56357;52.304;4.870;2023-05-02T03:22:26;102477.81;;;18.73;48.55
69245;BME280;56357;52.304;4.870;2023-05-02T03:24:52;102485.63;;;18.59;48.23
69245;BME280;56357;52.304;4.870;2023-05-02T03:27:19;102488.03;;;18.67;48.25
69245;BME280;56357;52.304;4.870;2023-05-02T03:29:45;102495.13;;;18.70;48.48
69245;BME280;56357;52.304;4.870;2023-05-02T03:32:11;102500.97;;;18.68;48.48
69245;BME280;56357;52.304;4.870;2023-05-02T03:34:38;102492.06;;;18.71;48.51
69245;BME280;56357;52.304;4.870;2023-05-02T03:37:06;102500.72;;;18.58;48.12
69245;BME280;56357;52.304;4.870;2023-05-02T03:39:32;102498.69;;;18.77;48.61
69245;BME280;56357;52.304;4.870;2023-05-02T03:41:58;102501.47;;;18.77;48.99
69245;BME280;56357;52.304;4.870;2023-05-02T03:44:25;102497.94;;;18.70;48.13
69245;BME280;56357;52.304;4.870;2023-05-02T03:46:52;102491.72;;;18.56;48.01
69245;BME280;56357;52.304;4.870;2023-05-02T03:49:18;102508.53;;;18.68;48.42
69245;BME280;56357;52.304;4.870;2023-05-02T03:51:44;102510.88;;;18.59;48.25
69245;BME280;56357;52.304;4.870;2023-05-02T03:54:11;102511.00;;;18.64;48.21
69245;BME280;56357;52.304;4.870;2023-05-02T03:56:37;102502.31;;;18.77;48.74
69245;BME280;56357;52.304;4.870;2023-05-02T03:59:04;102511.34;;;18.68;48.48
69245;BME280;56357;52.304;4.870;2023-05-02T04:01:30;102519.03;;;18.84;48.64
69245;BME280;56357;52.304;4.870;2023-05-02T04:03:57;102528.06;;;18.86;47.52
69245;BME280;56357;52.304;4.870;2023-05-02T04:06:23;102526.47;;;18.90;47.92
69245;BME280;56357;52.304;4.870;2023-05-02T04:08:49;102533.31;;;18.82;48.33
69245;BME280;56357;52.304;4.870;2023-05-02T04:11:16;102536.59;;;18.91;48.56
69245;BME280;56357;52.304;4.870;2023-05-02T04:13:42;102533.06;;;18.84;48.18
69245;BME280;56357;52.304;4.870;2023-05-02T04:16:08;102534.03;;;18.78;48.15
69245;BME280;56357;52.304;4.870;2023-05-02T04:18:35;102543.81;;;18.64;48.32
69245;BME280;56357;52.304;4.870;2023-05-02T04:21:01;102538.44;;;18.62;48.09
69245;BME280;56357;52.304;4.870;2023-05-02T04:23:28;102542.56;;;18.71;48.84
69245;BME280;56357;52.304;4.870;2023-05-02T04:25:54;102549.06;;;18.72;48.44
69245;BME280;56357;52.304;4.870;2023-05-02T04:28:21;102554.91;;;18.82;48.56
69245;BME280;56357;52.304;4.870;2023-05-02T04:30:48;102557.84;;;18.87;48.50
69245;BME280;56357;52.304;4.870;2023-05-02T04:33:16;102553.44;;;18.91;48.14
69245;BME280;56357;52.304;4.870;2023-05-02T04:35:42;102560.78;;;18.69;48.29
69245;BME280;56357;52.304;4.870;2023-05-02T04:38:09;102565.44;;;18.75;48.11
69245;BME280;56357;52.304;4.870;2023-05-02T04:40:35;102573.94;;;18.80;48.23
69245;BME280;56357;52.304;4.870;2023-05-02T04:43:02;102573.84;;;18.75;47.63
69245;BME280;56357;52.304;4.870;2023-05-02T04:45:29;102589.31;;;18.66;47.98
69245;BME280;56357;52.304;4.870;2023-05-02T04:47:55;102581.88;;;18.71;48.27
69245;BME280;56357;52.304;4.870;2023-05-02T04:50:21;102590.28;;;18.71;47.99
69245;BME280;56357;52.304;4.870;2023-05-02T04:52:48;102589.81;;;18.86;47.73
69245;BME280;56357;52.304;4.870;2023-05-02T04:55:14;102592.38;;;18.87;47.86
69245;BME280;56357;52.304;4.870;2023-05-02T04:57:41;102601.16;;;18.79;48.10
69245;BME280;56357;52.304;4.870;2023-05-02T05:00:08;102603.59;;;18.76;47.75
69245;BME280;56357;52.304;4.870;2023-05-02T05:02:34;102606.06;;;18.72;48.25
69245;BME280;56357;52.304;4.870;2023-05-02T05:05:01;102611.06;;;18.82;47.86
69245;BME280;56357;52.304;4.870;2023-05-02T05:07:28;102620.47;;;18.87;47.96
69245;BME280;56357;52.304;4.870;2023-05-02T05:09:54;102618.75;;;18.86;48.34
69245;BME280;56357;52.304;4.870;2023-05-02T05:12:21;102619.75;;;19.03;48.67
69245;BME280;56357;52.304;4.870;2023-05-02T05:14:47;102629.59;;;18.83;47.36
69245;BME280;56357;52.304;4.870;2023-05-02T05:17:14;102617.38;;;18.66;46.72
69245;BME280;56357;52.304;4.870;2023-05-02T05:19:40;102612.28;;;18.74;46.54
69245;BME280;56357;52.304;4.870;2023-05-02T05:22:07;102627.03;;;18.81;46.42
69245;BME280;56357;52.304;4.870;2023-05-02T05:24:33;102633.00;;;18.62;47.26
69245;BME280;56357;52.304;4.870;2023-05-02T05:27:00;102630.44;;;18.72;47.14
69245;BME280;56357;52.304;4.870;2023-05-02T05:29:26;102639.22;;;18.75;48.50
69245;BME280;56357;52.304;4.870;2023-05-02T05:31:53;102637.38;;;18.69;47.74
69245;BME280;56357;52.304;4.870;2023-05-02T05:34:19;102638.38;;;18.63;47.67
69245;BME280;56357;52.304;4.870;2023-05-02T05:36:46;102635.22;;;18.83;47.65
69245;BME280;56357;52.304;4.870;2023-05-02T05:39:12;102641.06;;;18.81;47.70
69245;BME280;56357;52.304;4.870;2023-05-02T05:41:39;102660.13;;;19.02;48.39
69245;BME280;56357;52.304;4.870;2023-05-02T05:44:05;102653.28;;;18.87;47.36
69245;BME280;56357;52.304;4.870;2023-05-02T05:46:32;102659.03;;;18.80;48.05
69245;BME280;56357;52.304;4.870;2023-05-02T05:48:58;102668.28;;;18.81;47.54
69245;BME280;56357;52.304;4.870;2023-05-02T05:51:25;102665.59;;;18.74;47.92
69245;BME280;56357;52.304;4.870;2023-05-02T05:53:52;102666.84;;;18.90;47.99
69245;BME280;56357;52.304;4.870;2023-05-02T05:56:19;102672.84;;;19.05;47.07
69245;BME280;56357;52.304;4.870;2023-05-02T05:58:46;102677.47;;;18.88;47.56
69245;BME280;56357;52.304;4.870;2023-05-02T06:01:12;102692.72;;;18.80;48.23
69245;BME280;56357;52.304;4.870;2023-05-02T06:03:39;102690.75;;;18.92;47.41
69245;BME280;56357;52.304;4.870;2023-05-02T06:06:05;102701.41;;;19.02;48.19
69245;BME280;56357;52.304;4.870;2023-05-02T06:08:32;102703.97;;;18.92;48.38
69245;BME280;56357;52.304;4.870;2023-05-02T06:10:58;102704.44;;;18.89;47.87
69245;BME280;56357;52.304;4.870;2023-05-02T06:13:25;102720.00;;;18.73;48.74
69245;BME280;56357;52.304;4.870;2023-05-02T06:15:51;102723.81;;;18.79;48.03
69245;BME280;56357;52.304;4.870;2023-05-02T06:18:18;102736.34;;;18.65;46.89
69245;BME280;56357;52.304;4.870;2023-05-02T06:20:44;102736.97;;;18.67;47.42
69245;BME280;56357;52.304;4.870;2023-05-02T06:23:11;102738.53;;;18.63;47.24
69245;BME280;56357;52.304;4.870;2023-05-02T06:25:37;102746.06;;;18.80;46.84
69245;BME280;56357;52.304;4.870;2023-05-02T06:28:04;102743.81;;;18.71;46.80
69245;BME280;56357;52.304;4.870;2023-05-02T06:30:30;102740.13;;;18.59;46.57
69245;BME280;56357;52.304;4.870;2023-05-02T06:32:56;102735.59;;;18.58;46.77
69245;BME280;56357;52.304;4.870;2023-05-02T06:35:23;102743.16;;;18.57;47.14
69245;BME280;56357;52.304;4.870;2023-05-02T06:37:49;102753.84;;;18.78;47.06
69245;BME280;56357;52.304;4.870;2023-05-02T06:40:16;102754.94;;;18.77;47.26
69245;BME280;56357;52.304;4.870;2023-05-02T06:42:42;102760.47;;;18.84;46.80
69245;BME280;56357;52.304;4.870;2023-05-02T06:45:09;102756.81;;;18.95;48.02
69245;BME280;56357;52.304;4.870;2023-05-02T06:47:36;102768.34;;;18.75;46.40
69245;BME280;56357;52.304;4.870;2023-05-02T06:50:02;102778.78;;;18.86;46.54
69245;BME280;56357;52.304;4.870;2023-05-02T06:52:29;102782.66;;;18.85;46.75
69245;BME280;56357;52.304;4.870;2023-05-02T06:54:55;102783.91;;;18.89;46.86
69245;BME280;56357;52.304;4.870;2023-05-02T06:57:23;102774.34;;;18.79;47.00
69245;BME280;56357;52.304;4.870;2023-05-02T06:59:50;102787.94;;;18.93;46.76
69245;BME280;56357;52.304;4.870;2023-05-02T07:02:16;102792.34;;;18.89;47.02
69245;BME280;56357;52.304;4.870;2023-05-02T07:04:42;102784.66;;;18.96;46.75
69245;BME280;56357;52.304;4.870;2023-05-02T07:07:09;102790.72;;;18.82;47.04
69245;BME280;56357;52.304;4.870;2023-05-02T07:09:35;102796.38;;;18.93;47.28
69245;BME280;56357;52.304;4.870;2023-05-02T07:12:02;102800.88;;;18.94;47.39
69245;BME280;56357;52.304;4.870;2023-05-02T07:14:28;102795.50;;;18.93;48.47
69245;BME280;56357;52.304;4.870;2023-05-02T07:16:55;102803.19;;;18.86;47.96
69245;BME280;56357;52.304;4.870;2023-05-02T07:19:21;102804.06;;;18.86;48.06
69245;BME280;56357;52.304;4.870;2023-05-02T07:21:48;102811.00;;;18.84;48.80
69245;BME280;56357;52.304;4.870;2023-05-02T07:24:14;102804.19;;;18.91;48.64
69245;BME280;56357;52.304;4.870;2023-05-02T07:26:41;102807.28;;;19.01;48.38
69245;BME280;56357;52.304;4.870;2023-05-02T07:29:07;102810.16;;;18.95;48.20
69245;BME280;56357;52.304;4.870;2023-05-02T07:31:33;102807.59;;;18.93;49.49
69245;BME280;56357;52.304;4.870;2023-05-02T07:34:00;102815.78;;;18.95;50.24
69245;BME280;56357;52.304;4.870;2023-05-02T07:36:26;102811.78;;;19.02;50.90
69245;BME280;56357;52.304;4.870;2023-05-02T07:38:53;102810.56;;;19.10;50.55
69245;BME280;56357;52.304;4.870;2023-05-02T07:41:19;102812.19;;;19.17;51.21
69245;BME280;56357;52.304;4.870;2023-05-02T07:43:46;102811.44;;;19.10;50.06
69245;BME280;56357;52.304;4.870;2023-05-02T07:46:12;102821.19;;;19.08;49.99
69245;BME280;56357;52.304;4.870;2023-05-02T07:48:39;102817.41;;;19.14;49.94
69245;BME280;56357;52.304;4.870;2023-05-02T07:51:07;102815.09;;;19.11;49.50
69245;BME280;56357;52.304;4.870;2023-05-02T07:53:34;102817.09;;;19.22;49.17
69245;BME280;56357;52.304;4.870;2023-05-02T07:56:04;102813.38;;;19.51;51.70
69245;BME280;56357;52.304;4.870;2023-05-02T07:58:31;102814.72;;;19.60;49.67
69245;BME280;56357;52.304;4.870;2023-05-02T08:00:57;102814.72;;;19.83;48.88
69245;BME280;56357;52.304;4.870;2023-05-02T08:03:24;102816.75;;;21.02;45.41
69245;BME280;56357;52.304;4.870;2023-05-02T08:05:50;102826.28;;;20.45;46.04
69245;BME280;56357;52.304;4.870;2023-05-02T08:08:17;102823.38;;;20.40;46.23
69245;BME280;56357;52.304;4.870;2023-05-02T08:10:43;102825.84;;;20.25;46.57
69245;BME280;56357;52.304;4.870;2023-05-02T08:13:11;102832.56;;;20.00;47.91
69245;BME280;56357;52.304;4.870;2023-05-02T08:15:37;102845.03;;;19.81;48.47
69245;BME280;56357;52.304;4.870;2023-05-02T08:18:04;102847.75;;;19.76;47.88
69245;BME280;56357;52.304;4.870;2023-05-02T08:20:30;102845.91;;;19.70;47.28
69245;BME280;56357;52.304;4.870;2023-05-02T08:22:56;102842.22;;;19.70;48.26
69245;BME280;56357;52.304;4.870;2023-05-02T08:25:23;102845.28;;;19.68;47.46
69245;BME280;56357;52.304;4.870;2023-05-02T08:27:49;102846.38;;;19.67;47.11
69245;BME280;56357;52.304;4.870;2023-05-02T08:30:16;102849.94;;;19.74;46.67
69245;BME280;56357;52.304;4.870;2023-05-02T08:32:42;102849.31;;;19.84;46.43
69245;BME280;56357;52.304;4.870;2023-05-02T08:35:09;102851.16;;;19.78;47.16
69245;BME280;56357;52.304;4.870;2023-05-02T08:37:35;102865.31;;;21.37;43.64
69245;BME280;56357;52.304;4.870;2023-05-02T08:40:02;102852.38;;;21.08;44.78
69245;BME280;56357;52.304;4.870;2023-05-02T08:42:31;102863.38;;;20.81;44.85
69245;BME280;56357;52.304;4.870;2023-05-02T08:44:58;102866.50;;;20.57;45.19
69245;BME280;56357;52.304;4.870;2023-05-02T08:47:26;102863.44;;;21.43;45.60
69245;BME280;56357;52.304;4.870;2023-05-02T08:49:52;102864.84;;;21.12;45.33
69245;BME280;56357;52.304;4.870;2023-05-02T08:52:20;102869.91;;;20.70;44.13
69245;BME280;56357;52.304;4.870;2023-05-02T08:54:49;102872.50;;;20.88;44.09
69245;BME280;56357;52.304;4.870;2023-05-02T08:57:16;102876.75;;;20.74;44.71
69245;BME280;56357;52.304;4.870;2023-05-02T08:59:42;102881.22;;;20.87;45.71
69245;BME280;56357;52.304;4.870;2023-05-02T09:02:22;102879.22;;;20.99;44.24
69245;BME280;56357;52.304;4.870;2023-05-02T09:04:53;102880.81;;;21.07;43.55
69245;BME280;56357;52.304;4.870;2023-05-02T09:07:19;102881.16;;;21.10;43.42
69245;BME280;56357;52.304;4.870;2023-05-02T09:09:46;102879.00;;;20.89;44.60
69245;BME280;56357;52.304;4.870;2023-05-02T09:12:13;102876.66;;;20.58;44.87
69245;BME280;56357;52.304;4.870;2023-05-02T09:14:42;102887.72;;;20.48;45.33
69245;BME280;56357;52.304;4.870;2023-05-02T09:17:09;102890.56;;;20.36;44.59
69245;BME280;56357;52.304;4.870;2023-05-02T09:19:36;102895.56;;;20.46;45.70
69245;BME280;56357;52.304;4.870;2023-05-02T09:22:02;102898.25;;;20.29;45.88
69245;BME280;56357;52.304;4.870;2023-05-02T09:24:29;102906.84;;;20.23;46.24
69245;BME280;56357;52.304;4.870;2023-05-02T09:27:03;102912.81;;;20.26;47.59
69245;BME280;56357;52.304;4.870;2023-05-02T09:29:31;102908.78;;;20.22;49.29
69245;BME280;56357;52.304;4.870;2023-05-02T09:32:02;102897.88;;;20.14;48.99
69245;BME280;56357;52.304;4.870;2023-05-02T09:34:29;102912.44;;;20.11;48.47
69245;BME280;56357;52.304;4.870;2023-05-02T09:36:56;102915.50;;;20.21;48.04
69245;BME280;56357;52.304;4.870;2023-05-02T09:39:26;102906.34;;;20.26;48.29
69245;BME280;56357;52.304;4.870;2023-05-02T09:41:53;102904.59;;;20.13;47.63
69245;BME280;56357;52.304;4.870;2023-05-02T09:44:23;102913.06;;;20.25;47.75
69245;BME280;56357;52.304;4.870;2023-05-02T09:46:55;102921.63;;;20.18;47.31
69245;BME280;56357;52.304;4.870;2023-05-02T09:49:42;102917.81;;;20.13;46.09
69245;BME280;56357;52.304;4.870;2023-05-02T09:52:11;102933.25;;;20.22;46.52
69245;BME280;56357;52.304;4.870;2023-05-02T09:54:37;102935.34;;;20.26;46.98
69245;BME280;56357;52.304;4.870;2023-05-02T09:57:04;102934.97;;;20.23;46.06
69245;BME280;56357;52.304;4.870;2023-05-02T09:59:32;102939.19;;;20.14;45.90
69245;BME280;56357;52.304;4.870;2023-05-02T10:02:03;102952.69;;;20.23;45.69
69245;BME280;56357;52.304;4.870;2023-05-02T10:04:32;102945.72;;;20.26;44.85
69245;BME280;56357;52.304;4.870;2023-05-02T10:07:00;102943.50;;;20.16;45.20
69245;BME280;56357;52.304;4.870;2023-05-02T10:09:28;102940.00;;;20.21;45.03
69245;BME280;56357;52.304;4.870;2023-05-02T10:11:57;102942.16;;;20.07;44.98
69245;BME280;56357;52.304;4.870;2023-05-02T10:14:28;102943.75;;;20.15;44.87
69245;BME280;56357;52.304;4.870;2023-05-02T10:17:11;102941.66;;;20.10;44.32
69245;BME280;56357;52.304;4.870;2023-05-02T10:19:53;102944.09;;;20.06;44.24
69245;BME280;56357;52.304;4.870;2023-05-02T10:22:22;102950.84;;;20.05;43.92
69245;BME280;56357;52.304;4.870;2023-05-02T10:24:49;102950.34;;;20.08;43.93
69245;BME280;56357;52.304;4.870;2023-05-02T10:27:15;102945.69;;;20.14;43.70
69245;BME280;56357;52.304;4.870;2023-05-02T10:29:43;102936.91;;;20.34;45.21
69245;BME280;56357;52.304;4.870;2023-05-02T10:32:10;102953.44;;;20.19;43.55
69245;BME280;56357;52.304;4.870;2023-05-02T10:34:37;102950.44;;;20.14;43.75
69245;BME280;56357;52.304;4.870;2023-05-02T10:37:05;102959.44;;;20.22;42.85
69245;BME280;56357;52.304;4.870;2023-05-02T10:39:32;102962.50;;;20.21;43.61
69245;BME280;56357;52.304;4.870;2023-05-02T10:41:59;102954.47;;;20.06;43.52
69245;BME280;56357;52.304;4.870;2023-05-02T10:44:38;102957.34;;;20.29;43.97
69245;BME280;56357;52.304;4.870;2023-05-02T10:47:22;102970.91;;;20.09;43.01
69245;BME280;56357;52.304;4.870;2023-05-02T10:49:54;102964.81;;;20.24;44.30
69245;BME280;56357;52.304;4.870;2023-05-02T10:52:25;102961.75;;;20.25;44.87
69245;BME280;56357;52.304;4.870;2023-05-02T11:00:32;102977.00;;;20.18;43.26
69245;BME280;56357;52.304;4.870;2023-05-02T11:02:59;102972.78;;;20.27;42.48
69245;BME280;56357;52.304;4.870;2023-05-02T11:05:26;102962.59;;;20.26;42.71
69245;BME280;56357;52.304;4.870;2023-05-02T11:10:41;102958.41;;;20.17;42.65
69245;BME280;56357;52.304;4.870;2023-05-02T11:13:07;102969.22;;;20.20;42.97
69245;BME280;56357;52.304;4.870;2023-05-02T11:18:08;102974.53;;;20.09;42.74
69245;BME280;56357;52.304;4.870;2023-05-02T11:20:38;102985.78;;;20.09;41.79
69245;BME280;56357;52.304;4.870;2023-05-02T11:25:44;102971.00;;;20.14;41.88
69245;BME280;56357;52.304;4.870;2023-05-02T11:30:59;102975.78;;;20.14;41.72
69245;BME280;56357;52.304;4.870;2023-05-02T11:33:27;102972.16;;;20.25;41.16
69245;BME280;56357;52.304;4.870;2023-05-02T11:35:54;102978.41;;;20.27;41.69
69245;BME280;56357;52.304;4.870;2023-05-02T11:38:22;102980.22;;;20.33;41.65
69245;BME280;56357;52.304;4.870;2023-05-02T11:40:50;102973.13;;;20.19;41.38
69245;BME280;56357;52.304;4.870;2023-05-02T11:43:18;102972.28;;;20.18;41.53
69245;BME280;56357;52.304;4.870;2023-05-02T11:45:45;102981.81;;;20.29;41.05
69245;BME280;56357;52.304;4.870;2023-05-02T11:48:15;102979.50;;;20.37;41.43
69245;BME280;56357;52.304;4.870;2023-05-02T11:51:04;102985.13;;;20.37;41.07
69245;BME280;56357;52.304;4.870;2023-05-02T11:53:31;102983.91;;;20.45;41.57
69245;BME280;56357;52.304;4.870;2023-05-02T11:56:00;102990.84;;;20.54;41.53
69245;BME280;56357;52.304;4.870;2023-05-02T11:58:28;103001.91;;;20.44;42.11
69245;BME280;56357;52.304;4.870;2023-05-02T12:00:58;103005.53;;;20.33;41.65
69245;BME280;56357;52.304;4.870;2023-05-02T12:03:32;102984.25;;;20.48;41.30
69245;BME280;56357;52.304;4.870;2023-05-02T12:06:15;103003.34;;;20.58;41.14
69245;BME280;56357;52.304;4.870;2023-05-02T12:08:43;103000.53;;;20.46;41.40
69245;BME280;56357;52.304;4.870;2023-05-02T12:11:14;103002.00;;;20.49;41.02
69245;BME280;56357;52.304;4.870;2023-05-02T12:13:48;103006.53;;;20.38;41.32
69245;BME280;56357;52.304;4.870;2023-05-02T12:16:15;103008.00;;;20.52;41.41
69245;BME280;56357;52.304;4.870;2023-05-02T12:18:42;103010.97;;;20.46;40.69
69245;BME280;56357;52.304;4.870;2023-05-02T12:21:09;103011.69;;;20.64;41.15
69245;BME280;56357;52.304;4.870;2023-05-02T12:23:35;103008.59;;;20.66;41.96
69245;BME280;56357;52.304;4.870;2023-05-02T12:26:21;103005.19;;;20.64;40.61
69245;BME280;56357;52.304;4.870;2023-05-02T12:28:50;103002.72;;;20.67;40.72
69245;BME280;56357;52.304;4.870;2023-05-02T12:31:18;102994.16;;;20.62;40.47
69245;BME280;56357;52.304;4.870;2023-05-02T12:33:46;103005.06;;;20.59;40.38
69245;BME280;56357;52.304;4.870;2023-05-02T12:36:15;103011.06;;;20.51;40.67
69245;BME280;56357;52.304;4.870;2023-05-02T12:38:53;103021.09;;;20.47;40.86
69245;BME280;56357;52.304;4.870;2023-05-02T12:41:36;103023.91;;;20.58;40.67
69245;BME280;56357;52.304;4.870;2023-05-02T12:44:04;103029.78;;;20.57;40.46
69245;BME280;56357;52.304;4.870;2023-05-02T12:46:31;103029.19;;;20.55;41.56
69245;BME280;56357;52.304;4.870;2023-05-02T12:49:04;103026.22;;;20.61;40.51
69245;BME280;56357;52.304;4.870;2023-05-02T12:51:32;103024.28;;;20.62;40.34
69245;BME280;56357;52.304;4.870;2023-05-02T12:53:58;103023.19;;;20.63;40.34
69245;BME280;56357;52.304;4.870;2023-05-02T12:56:25;103026.47;;;20.60;40.00
69245;BME280;56357;52.304;4.870;2023-05-02T12:58:56;103022.44;;;20.67;40.54
69245;BME280;56357;52.304;4.870;2023-05-02T13:01:25;103018.25;;;20.81;39.89
69245;BME280;56357;52.304;4.870;2023-05-02T13:03:51;103024.00;;;20.75;40.37
69245;BME280;56357;52.304;4.870;2023-05-02T13:06:17;103020.72;;;20.78;39.92
69245;BME280;56357;52.304;4.870;2023-05-02T13:08:44;103026.34;;;20.89;40.80
69245;BME280;56357;52.304;4.870;2023-05-02T13:11:10;103026.69;;;20.93;40.01
69245;BME280;56357;52.304;4.870;2023-05-02T13:13:37;103029.53;;;20.93;40.85
69245;BME280;56357;52.304;4.870;2023-05-02T13:16:04;103027.41;;;21.00;40.82
69245;BME280;56357;52.304;4.870;2023-05-02T13:18:30;103043.50;;;20.88;40.37
69245;BME280;56357;52.304;4.870;2023-05-02T13:20:57;103035.75;;;20.95;40.15
69245;BME280;56357;52.304;4.870;2023-05-02T13:23:23;103032.34;;;20.93;39.72
69245;BME280;56357;52.304;4.870;2023-05-02T13:25:49;103030.38;;;20.93;40.20